Blair, WI

12:14 AM CDT on July 24, 2017 (GMT -0500)
Sacia Orchards | | Change Station
Active Advisory: Flood Warning

Elev 879 ft 44.10 °N, 91.39 °W | Updated 32 seconds ago

Partly Cloudy
Partly Cloudy
62.2 °F
Feels Like 62.2 °F
N
3.0
Wind Variable Wind from NE

Today
High -- | Low -- °F
--% Chance of Precip.
Yesterday
High -- | Low -- °F
Precip. -- in
Pressure 29.98 in
Visibility 10.0 miles
Clouds Overcast 3600 ft
Dew Point 61 °F
Humidity 98%
Rainfall 0.00 in
Snow Depth Not available.
5:44 AM 8:38 PM
New Moon, 1% visible
METAR KBCK 240455Z AUTO 03005KT 10SM OVC036 19/15 A2998 RMK AO2 T01900145
Pressure 29.98 in
Visibility 10.0 miles
Clouds Overcast 3600 ft
Dew Point 61 °F
Humidity 98%
Rainfall 0.00 in
Snow Depth Not available.
5:44 AM 8:38 PM
New Moon, 1% visible
METAR KBCK 240455Z AUTO 03005KT 10SM OVC036 19/15 A2998 RMK AO2 T01900145

Get Your Daily Forecast Email!

Thanks for signing up!

Be on the lookout for a verification email in your inbox.

You'll start receiving severe weather alerts in your inbox..

×

10-Day Weather Forecast

Almanac

Astronomy

Jul. 24, 2017 Rise Set
Actual Time
Civil Twilight
Nautical Twilight
Astronomical Twilight
Moon
Length of Visible Light
Length of Day
Tomorrow will be .
, % of the Moon is Illuminated

Today's Extremes

State Highs State Lows

Community

WunderPhotos

Category 6

Welcome to Category 6. This is the collective home for Weather Underground's featured writeups by Dr. Jeff Masters (right), Bob Henson (left), Chris Burt, and other regular contributors.

Nearby

Air Quality

  Air Quality AQ Index Pollutant
Not available.

Snow Depth

Station Depth Elevation

Earthquake Activity

City Distance Mag. Time & Date
Minimum magnitude displayed is 2.5.

Coastal Water Temperatures

Place Temperature

Stations

Nearby Weather Stations

Station Location Temp. Windchill Dew Point Humidity Wind Precip. Elev Updated Type
                   

Watches & Warnings

Flood Warning
Issued: 8:32 PM CDT Jul. 23, 2017 – National Weather Service

The Flood Warning continues for
the Trempealeau River at Dodge.
* Until Wednesday morning... or until the warning is cancelled.
* At 7:45 PM Sunday the stage was 11.0 feet.
* Flood stage is 9.0 feet.
* Minor flooding is occurring and minor flooding is forecast.
* Forecast... the river will continue to fall... dropping below flood
stage by Tuesday.
* Impact... at 11.0 feet... the Railroad bridge about three quarters of
a mile upstream from the gage can restrict the flow.


Lat... Lon 4404 9158 4420 9163 4423 9158 4422 9158 4402 9149